Time,TemperatureF,DewpointF,PressureIn,WindDirection,WindDirectionDegrees,WindSpeedMPH,WindSpeedGustMPH,Humidity,HourlyPrecipIn,Conditions,Clouds,dailyrainin,SolarRadiationWatts/m^2,SoftwareType,DateUTC
2013-11-20 00:01:00,58.1,48.4,30.08,NE,47,3.0,11.0,70,0.00,,,0.00,0.0,meteohub,2013-11-20 05:01:00,
2013-11-20 00:03:00,57.9,48.2,30.08,NNE,29,5.0,11.0,70,0.00,,,0.00,0.0,meteohub,2013-11-20 05:03:00,
2013-11-20 00:08:00,57.9,48.6,30.08,NNE,20,3.0,11.0,71,0.00,,,0.00,0.0,meteohub,2013-11-20 05:08:00,
2013-11-20 00:13:00,57.9,48.6,30.08,NNE,24,6.0,11.0,71,0.00,,,0.00,0.0,meteohub,2013-11-20 05:13:00,
2013-11-20 00:18:00,57.9,48.6,30.08,NNE,21,10.0,10.0,71,0.00,,,0.00,0.0,meteohub,2013-11-20 05:18:00,
2013-11-20 00:23:00,57.9,48.9,30.07,ENE,69,5.0,10.0,72,0.00,,,0.00,0.0,meteohub,2013-11-20 05:23:00,
2013-11-20 00:29:00,57.7,48.7,30.07,ENE,61,0.0,11.0,72,0.00,,,0.00,0.0,meteohub,2013-11-20 05:29:00,
2013-11-20 00:34:00,57.7,48.7,30.07,NNE,32,5.0,11.0,72,0.00,,,0.00,0.0,meteohub,2013-11-20 05:34:00,
2013-11-20 00:39:00,57.7,49.1,30.07,NNE,32,1.0,11.0,73,0.00,,,0.00,0.0,meteohub,2013-11-20 05:39:00,
2013-11-20 00:44:00,57.6,48.9,30.07,North,0,5.0,9.0,73,0.00,,,0.00,0.0,meteohub,2013-11-20 05:44:00,
2013-11-20 00:49:00,57.6,49.3,30.07,NE,55,3.0,9.0,74,0.00,,,0.00,0.0,meteohub,2013-11-20 05:49:00,
2013-11-20 00:54:00,57.4,49.5,30.06,NNE,24,2.0,8.0,75,0.00,,,0.00,0.0,meteohub,2013-11-20 05:54:00,
2013-11-20 00:59:00,57.4,49.5,30.06,NNE,18,1.0,7.0,75,0.00,,,0.00,0.0,meteohub,2013-11-20 05:59:00,
2013-11-20 01:04:00,57.2,49.6,30.06,NE,38,1.0,7.0,76,0.00,,,0.00,0.0,meteohub,2013-11-20 06:04:00,
2013-11-20 01:09:00,57.0,49.5,30.06,NNE,30,0.0,7.0,76,0.00,,,0.00,0.0,meteohub,2013-11-20 06:09:00,
2013-11-20 01:14:00,57.0,49.8,30.06,NNE,29,0.0,7.0,77,0.00,,,0.00,0.0,meteohub,2013-11-20 06:14:00,
2013-11-20 01:19:00,57.0,49.8,30.06,NNE,33,0.0,7.0,77,0.00,,,0.00,0.0,meteohub,2013-11-20 06:19:00,
2013-11-20 01:24:00,57.0,50.2,30.06,NNE,33,1.0,7.0,78,0.00,,,0.00,0.0,meteohub,2013-11-20 06:24:00,
2013-11-20 01:29:00,57.0,50.2,30.06,NE,49,3.0,7.0,78,0.00,,,0.00,0.0,meteohub,2013-11-20 06:29:00,
2013-11-20 01:34:00,57.2,50.4,30.06,NNE,32,3.0,8.0,78,0.00,,,0.00,0.0,meteohub,2013-11-20 06:34:00,
2013-11-20 01:39:00,57.4,50.9,30.06,ENE,63,3.0,8.0,79,0.00,,,0.00,0.0,meteohub,2013-11-20 06:39:00,
2013-11-20 01:44:00,57.6,51.1,30.06,NNE,32,8.0,8.0,79,0.00,,,0.00,0.0,meteohub,2013-11-20 06:44:00,
2013-11-20 01:49:00,57.7,51.3,30.06,NE,40,1.0,8.0,79,0.00,,,0.00,0.0,meteohub,2013-11-20 06:49:00,
2013-11-20 01:54:00,57.7,51.3,30.06,NE,40,0.0,8.0,79,0.00,,,0.00,0.0,meteohub,2013-11-20 06:54:00,
2013-11-20 01:59:00,57.4,50.9,30.07,NNW,338,0.0,8.0,79,0.00,,,0.00,0.0,meteohub,2013-11-20 06:59:00,
2013-11-20 02:04:00,56.7,50.2,30.07,NW,321,0.0,7.0,79,0.00,,,0.00,0.0,meteohub,2013-11-20 07:04:00,
2013-11-20 02:09:00,56.1,49.6,30.07,North,5,1.0,5.0,79,0.00,,,0.00,0.0,meteohub,2013-11-20 07:09:00,
2013-11-20 02:14:00,55.6,49.5,30.06,NE,48,2.0,5.0,80,0.00,,,0.00,0.0,meteohub,2013-11-20 07:14:00,
2013-11-20 02:19:00,55.4,49.6,30.06,NE,46,4.0,5.0,81,0.00,,,0.00,0.0,meteohub,2013-11-20 07:19:00,
2013-11-20 02:24:00,55.2,49.5,30.06,NNE,31,2.0,6.0,81,0.00,,,0.00,0.0,meteohub,2013-11-20 07:24:00,
2013-11-20 02:29:00,55.2,49.5,30.06,NNE,23,1.0,6.0,81,0.00,,,0.00,0.0,meteohub,2013-11-20 07:29:00,
2013-11-20 02:34:00,55.6,49.8,30.06,NE,48,2.0,7.0,81,0.00,,,0.00,0.0,meteohub,2013-11-20 07:34:00,
2013-11-20 02:39:00,55.8,50.0,30.06,ENE,67,1.0,7.0,81,0.00,,,0.00,0.0,meteohub,2013-11-20 07:39:00,
2013-11-20 02:44:00,55.8,50.0,30.07,ENE,60,2.0,7.0,81,0.00,,,0.00,0.0,meteohub,2013-11-20 07:44:00,
2013-11-20 02:49:00,55.8,50.0,30.06,NE,38,3.0,7.0,81,0.00,,,0.00,0.0,meteohub,2013-11-20 07:49:00,
2013-11-20 02:54:00,55.9,50.5,30.06,NNE,31,0.0,8.0,82,0.00,,,0.00,0.0,meteohub,2013-11-20 07:54:00,
2013-11-20 02:59:00,55.9,50.5,30.06,NE,36,0.0,8.0,82,0.00,,,0.00,0.0,meteohub,2013-11-20 07:59:00,
2013-11-20 03:04:00,55.9,50.5,30.07,NNE,26,1.0,8.0,82,0.00,,,0.00,0.0,meteohub,2013-11-20 08:04:00,
2013-11-20 03:09:00,55.9,50.9,30.07,NE,52,5.0,7.0,83,0.00,,,0.00,0.0,meteohub,2013-11-20 08:09:00,
2013-11-20 03:14:00,55.9,50.9,30.07,NE,49,5.0,7.0,83,0.00,,,0.00,0.0,meteohub,2013-11-20 08:14:00,
2013-11-20 03:19:00,55.9,51.3,30.07,NE,44,0.0,7.0,84,0.00,,,0.00,0.0,meteohub,2013-11-20 08:19:00,
2013-11-20 03:24:00,56.1,51.4,30.07,NNE,15,6.0,8.0,84,0.00,,,0.00,0.0,meteohub,2013-11-20 08:24:00,
2013-11-20 03:29:00,56.1,51.6,30.07,NE,43,4.0,8.0,85,0.00,,,0.00,0.0,meteohub,2013-11-20 08:29:00,
2013-11-20 03:34:00,56.3,51.8,30.07,NNE,29,0.0,8.0,85,0.00,,,0.00,0.0,meteohub,2013-11-20 08:34:00,
2013-11-20 03:39:00,56.5,52.0,30.07,NE,42,3.0,12.0,85,0.00,,,0.00,0.0,meteohub,2013-11-20 08:39:00,
2013-11-20 03:44:00,56.5,52.3,30.07,NE,56,3.0,12.0,86,0.00,,,0.00,0.0,meteohub,2013-11-20 08:44:00,
2013-11-20 03:49:00,56.7,52.5,30.07,NNE,31,1.0,9.0,86,0.00,,,0.00,0.0,meteohub,2013-11-20 08:49:00,
2013-11-20 03:54:00,56.7,52.5,30.07,NE,37,4.0,9.0,86,0.00,,,0.00,0.0,meteohub,2013-11-20 08:54:00,
2013-11-20 03:59:00,56.8,52.7,30.07,NE,44,8.0,10.0,86,0.00,,,0.00,0.0,meteohub,2013-11-20 08:59:00,
2013-11-20 04:04:00,57.0,52.9,30.07,NNE,28,2.0,15.0,86,0.00,,,0.00,0.0,meteohub,2013-11-20 09:04:00,
2013-11-20 04:09:00,57.0,52.9,30.08,NE,53,1.0,15.0,86,0.00,,,0.00,0.0,meteohub,2013-11-20 09:09:00,
2013-11-20 04:14:00,57.0,52.5,30.08,NNW,342,5.0,14.0,85,0.00,,,0.00,0.0,meteohub,2013-11-20 09:14:00,
2013-11-20 04:20:00,57.0,52.5,30.08,NE,38,4.0,13.0,85,0.00,,,0.00,0.0,meteohub,2013-11-20 09:20:00,
2013-11-20 04:25:00,57.2,52.7,30.08,NE,49,4.0,12.0,85,0.00,,,0.00,0.0,meteohub,2013-11-20 09:25:00,
2013-11-20 04:30:00,57.0,52.5,30.08,NE,44,3.0,16.0,85,0.00,,,0.00,0.0,meteohub,2013-11-20 09:30:00,
2013-11-20 04:35:00,57.2,52.7,30.08,NNE,15,4.0,16.0,85,0.00,,,0.00,0.0,meteohub,2013-11-20 09:35:00,
2013-11-20 04:40:00,57.0,52.5,30.08,NE,51,9.0,16.0,85,0.00,,,0.00,0.0,meteohub,2013-11-20 09:40:00,
2013-11-20 04:45:00,57.0,52.5,30.08,NNW,337,6.0,13.0,85,0.00,,,0.00,0.0,meteohub,2013-11-20 09:45:00,
2013-11-20 04:50:00,57.0,52.5,30.08,NE,40,7.0,14.0,85,0.00,,,0.00,0.0,meteohub,2013-11-20 09:50:00,
2013-11-20 04:55:00,57.0,52.5,30.08,NNE,30,5.0,14.0,85,0.00,,,0.00,0.0,meteohub,2013-11-20 09:55:00,
2013-11-20 05:00:00,57.0,52.9,30.08,NE,44,5.0,14.0,86,0.00,,,0.00,0.0,meteohub,2013-11-20 10:00:00,
2013-11-20 05:05:00,57.0,52.9,30.08,NE,35,3.0,13.0,86,0.00,,,0.00,0.0,meteohub,2013-11-20 10:05:00,
2013-11-20 05:10:00,57.0,52.9,30.09,NE,34,6.0,15.0,86,0.00,,,0.00,0.0,meteohub,2013-11-20 10:10:00,
2013-11-20 05:15:00,57.0,53.2,30.09,NNE,21,7.0,15.0,87,0.00,,,0.00,0.0,meteohub,2013-11-20 10:15:00,
2013-11-20 05:20:00,57.0,53.2,30.09,NNE,32,4.0,15.0,87,0.00,,,0.00,0.0,meteohub,2013-11-20 10:20:00,
2013-11-20 05:25:00,57.0,53.2,30.09,North,0,8.0,9.0,87,0.00,,,0.00,0.0,meteohub,2013-11-20 10:25:00,
2013-11-20 05:30:00,57.0,53.2,30.09,ENE,63,9.0,11.0,87,0.00,,,0.00,0.0,meteohub,2013-11-20 10:30:00,
2013-11-20 05:35:00,57.0,53.2,30.09,NNE,24,8.0,12.0,87,0.00,,,0.00,0.0,meteohub,2013-11-20 10:35:00,
2013-11-20 05:40:00,57.0,53.4,30.09,NE,45,7.0,12.0,88,0.00,,,0.00,0.0,meteohub,2013-11-20 10:40:00,
2013-11-20 05:45:00,56.8,53.2,30.09,ENE,72,9.0,12.0,88,0.00,,,0.00,0.0,meteohub,2013-11-20 10:45:00,
2013-11-20 05:50:00,56.8,53.2,30.09,NNW,347,4.0,12.0,88,0.00,,,0.00,0.0,meteohub,2013-11-20 10:50:00,
2013-11-20 05:55:00,56.7,53.1,30.09,NE,37,10.0,13.0,88,0.00,,,0.00,0.0,meteohub,2013-11-20 10:55:00,
2013-11-20 06:00:00,56.7,53.1,30.09,North,0,6.0,13.0,88,0.00,,,0.00,0.0,meteohub,2013-11-20 11:00:00,
2013-11-20 06:05:00,56.7,53.1,30.10,NNE,28,9.0,13.0,88,0.00,,,0.00,0.0,meteohub,2013-11-20 11:05:00,
2013-11-20 06:10:00,56.7,53.1,30.10,NE,43,5.0,14.0,88,0.00,,,0.00,0.0,meteohub,2013-11-20 11:10:00,
2013-11-20 06:15:00,56.5,52.9,30.10,NNE,21,4.0,14.0,88,0.00,,,0.00,0.0,meteohub,2013-11-20 11:15:00,
2013-11-20 06:20:00,56.5,53.2,30.10,NE,38,7.0,14.0,89,0.00,,,0.00,0.0,meteohub,2013-11-20 11:20:00,
2013-11-20 06:25:00,56.5,53.2,30.10,North,5,0.0,14.0,89,0.00,,,0.00,0.0,meteohub,2013-11-20 11:25:00,
2013-11-20 06:30:00,56.5,53.2,30.10,NE,45,4.0,12.0,89,0.00,,,0.00,0.0,meteohub,2013-11-20 11:30:00,
2013-11-20 06:35:00,56.7,53.4,30.10,NNE,29,6.0,12.0,89,0.00,,,0.00,0.0,meteohub,2013-11-20 11:35:00,
2013-11-20 06:40:00,56.7,53.4,30.10,NNE,30,0.0,12.0,89,0.00,,,0.00,0.0,meteohub,2013-11-20 11:40:00,
2013-11-20 06:45:00,56.7,53.8,30.11,NNE,31,9.0,11.0,90,0.00,,,0.00,0.0,meteohub,2013-11-20 11:45:00,
2013-11-20 06:50:00,56.8,54.0,30.11,NNE,32,2.0,13.0,90,0.00,,,0.00,0.0,meteohub,2013-11-20 11:50:00,
2013-11-20 06:55:00,56.8,54.0,30.11,NE,44,2.0,13.0,90,0.00,,,0.00,0.0,meteohub,2013-11-20 11:55:00,
2013-11-20 07:00:00,57.0,54.1,30.11,NE,46,6.0,14.0,90,0.00,,,0.00,0.0,meteohub,2013-11-20 12:00:00,
2013-11-20 07:05:00,57.0,54.1,30.11,NE,55,6.0,14.0,90,0.00,,,0.00,5.0,meteohub,2013-11-20 12:05:00,
2013-11-20 07:10:00,57.0,54.1,30.11,NNE,24,4.0,14.0,90,0.00,,,0.00,11.0,meteohub,2013-11-20 12:10:00,
2013-11-20 07:15:00,57.0,54.1,30.11,NE,44,10.0,14.0,90,0.00,,,0.00,14.0,meteohub,2013-11-20 12:15:00,
2013-11-20 07:21:00,57.0,53.8,30.11,NNE,15,2.0,14.0,89,0.00,,,0.00,19.0,meteohub,2013-11-20 12:21:00,
2013-11-20 07:25:00,57.0,53.8,30.12,NE,44,6.0,14.0,89,0.00,,,0.00,30.0,meteohub,2013-11-20 12:25:00,
2013-11-20 07:30:00,57.2,54.0,30.12,NE,40,4.0,14.0,89,0.00,,,0.00,49.0,meteohub,2013-11-20 12:30:00,
2013-11-20 07:35:00,57.2,54.0,30.12,North,5,10.0,17.0,89,0.00,,,0.00,42.0,meteohub,2013-11-20 12:35:00,
2013-11-20 07:40:00,57.2,54.3,30.12,North,5,8.0,17.0,90,0.00,,,0.00,39.0,meteohub,2013-11-20 12:40:00,
2013-11-20 07:45:00,57.0,53.8,30.12,NE,42,12.0,15.0,89,0.00,,,0.00,42.0,meteohub,2013-11-20 12:45:00,
2013-11-20 07:50:00,57.0,53.8,30.13,NNW,348,9.0,15.0,89,0.00,,,0.00,54.0,meteohub,2013-11-20 12:50:00,
2013-11-20 07:55:00,57.0,53.8,30.12,NE,40,15.0,17.0,89,0.00,,,0.00,81.0,meteohub,2013-11-20 12:55:00,
2013-11-20 08:00:00,57.2,54.0,30.13,NNE,31,6.0,17.0,89,0.00,,,0.00,84.0,meteohub,2013-11-20 13:00:00,
2013-11-20 08:06:00,57.2,54.0,30.13,ENE,74,8.0,17.0,89,0.00,,,0.00,104.0,meteohub,2013-11-20 13:06:00,
2013-11-20 08:10:00,57.0,53.8,30.13,NE,48,11.0,16.0,89,0.00,,,0.00,98.0,meteohub,2013-11-20 13:10:00,
2013-11-20 08:16:00,57.0,53.4,30.14,NNE,22,8.0,14.0,88,0.00,,,0.00,144.0,meteohub,2013-11-20 13:16:00,
2013-11-20 08:21:00,57.0,53.4,30.14,ENE,63,9.0,16.0,88,0.00,,,0.00,186.0,meteohub,2013-11-20 13:21:00,
2013-11-20 08:26:00,57.0,53.4,30.14,NNE,21,13.0,21.0,88,0.00,,,0.00,246.0,meteohub,2013-11-20 13:26:00,
2013-11-20 08:31:00,57.2,53.6,30.14,NNE,26,2.0,21.0,88,0.00,,,0.00,190.0,meteohub,2013-11-20 13:31:00,
2013-11-20 08:36:00,57.4,53.6,30.14,NE,40,3.0,21.0,87,0.00,,,0.00,137.0,meteohub,2013-11-20 13:36:00,
2013-11-20 08:41:00,57.4,53.8,30.14,NNE,26,13.0,19.0,88,0.00,,,0.00,172.0,meteohub,2013-11-20 13:41:00,
2013-11-20 08:46:00,57.2,53.4,30.15,NNE,26,11.0,19.0,87,0.00,,,0.00,118.0,meteohub,2013-11-20 13:46:00,
2013-11-20 08:51:00,57.2,53.6,30.15,NE,48,14.0,16.0,88,0.00,,,0.00,125.0,meteohub,2013-11-20 13:51:00,
2013-11-20 08:56:00,57.0,53.4,30.15,NNE,28,11.0,17.0,88,0.00,,,0.00,102.0,meteohub,2013-11-20 13:56:00,
2013-11-20 09:01:00,57.0,53.4,30.16,ENE,57,3.0,17.0,88,0.00,,,0.00,123.0,meteohub,2013-11-20 14:01:00,
2013-11-20 09:06:00,57.0,53.4,30.16,NNE,16,7.0,17.0,88,0.00,,,0.00,171.0,meteohub,2013-11-20 14:06:00,
2013-11-20 09:11:00,57.0,53.4,30.16,North,11,6.0,18.0,88,0.00,,,0.00,91.0,meteohub,2013-11-20 14:11:00,
2013-11-20 09:16:00,57.0,53.4,30.17,NNE,24,9.0,18.0,88,0.00,,,0.00,105.0,meteohub,2013-11-20 14:16:00,
2013-11-20 09:21:00,56.8,53.1,30.17,ENE,71,5.0,20.0,87,0.00,,,0.00,123.0,meteohub,2013-11-20 14:21:00,
2013-11-20 09:26:00,56.8,53.1,30.17,ENE,63,9.0,20.0,87,0.00,,,0.00,292.0,meteohub,2013-11-20 14:26:00,
2013-11-20 09:31:00,56.8,53.1,30.17,North,9,13.0,20.0,87,0.00,,,0.00,195.0,meteohub,2013-11-20 14:31:00,
2013-11-20 09:36:00,56.8,53.1,30.18,NE,38,5.0,16.0,87,0.00,,,0.00,149.0,meteohub,2013-11-20 14:36:00,
2013-11-20 09:41:00,56.7,52.9,30.17,ENE,65,12.0,21.0,87,0.00,,,0.00,258.0,meteohub,2013-11-20 14:41:00,
2013-11-20 09:46:00,56.8,53.1,30.17,NW,309,5.0,21.0,87,0.00,,,0.00,188.0,meteohub,2013-11-20 14:46:00,
2013-11-20 09:51:00,56.8,53.1,30.18,North,5,14.0,21.0,87,0.00,,,0.00,227.0,meteohub,2013-11-20 14:51:00,
2013-11-20 09:56:00,56.8,52.7,30.17,NE,56,5.0,21.0,86,0.00,,,0.00,229.0,meteohub,2013-11-20 14:56:00,
2013-11-20 10:01:00,57.0,52.9,30.18,NNW,332,9.0,21.0,86,0.00,,,0.00,234.0,meteohub,2013-11-20 15:01:00,
2013-11-20 10:06:00,56.8,52.7,30.18,North,0,7.0,21.0,86,0.00,,,0.00,302.0,meteohub,2013-11-20 15:06:00,
2013-11-20 10:11:00,56.8,52.3,30.18,NE,42,9.0,21.0,85,0.00,,,0.00,237.0,meteohub,2013-11-20 15:11:00,
2013-11-20 10:16:00,56.8,52.3,30.18,ENE,62,7.0,21.0,85,0.00,,,0.00,113.0,meteohub,2013-11-20 15:16:00,
2013-11-20 10:21:00,56.7,52.2,30.18,NNE,17,14.0,21.0,85,0.00,,,0.00,141.0,meteohub,2013-11-20 15:21:00,
2013-11-20 10:26:00,56.7,52.5,30.18,NE,45,5.0,22.0,86,0.00,,,0.00,329.0,meteohub,2013-11-20 15:26:00,
2013-11-20 10:31:00,56.7,52.5,30.18,NNE,31,5.0,22.0,86,0.00,,,0.00,116.0,meteohub,2013-11-20 15:31:00,
2013-11-20 10:36:00,56.8,52.7,30.18,ENE,61,11.0,22.0,86,0.00,,,0.00,371.0,meteohub,2013-11-20 15:36:00,
2013-11-20 10:41:00,56.8,52.3,30.18,ENE,59,11.0,21.0,85,0.00,,,0.00,234.0,meteohub,2013-11-20 15:41:00,
2013-11-20 10:46:00,56.8,52.3,30.18,NNE,28,6.0,21.0,85,0.00,,,0.00,137.0,meteohub,2013-11-20 15:46:00,
2013-11-20 10:51:00,56.7,52.2,30.18,North,11,10.0,21.0,85,0.00,,,0.00,332.0,meteohub,2013-11-20 15:51:00,
2013-11-20 10:56:00,56.8,52.3,30.18,ENE,60,3.0,17.0,85,0.00,,,0.00,346.0,meteohub,2013-11-20 15:56:00,
2013-11-20 11:01:00,56.8,52.3,30.18,NE,44,10.0,16.0,85,0.00,,,0.00,269.0,meteohub,2013-11-20 16:01:00,
2013-11-20 11:06:00,56.7,52.2,30.19,NE,49,12.0,16.0,85,0.00,,,0.00,236.0,meteohub,2013-11-20 16:06:00,
2013-11-20 11:11:00,56.5,52.0,30.18,NE,44,5.0,16.0,85,0.00,,,0.00,216.0,meteohub,2013-11-20 16:11:00,
2013-11-20 11:16:00,56.5,52.0,30.18,NNE,27,12.0,20.0,85,0.00,,,0.00,258.0,meteohub,2013-11-20 16:16:00,
2013-11-20 11:21:00,56.5,52.0,30.18,North,0,3.0,21.0,85,0.00,,,0.00,271.0,meteohub,2013-11-20 16:21:00,
2013-11-20 11:26:00,56.5,52.3,30.18,NE,49,6.0,21.0,86,0.00,,,0.00,174.0,meteohub,2013-11-20 16:26:00,
2013-11-20 11:31:00,56.7,52.5,30.18,ENE,69,13.0,21.0,86,0.00,,,0.00,304.0,meteohub,2013-11-20 16:31:00,
2013-11-20 11:36:00,56.8,52.7,30.18,ENE,71,9.0,19.0,86,0.00,,,0.00,253.0,meteohub,2013-11-20 16:36:00,
2013-11-20 11:41:00,56.8,52.3,30.17,NE,55,10.0,19.0,85,0.00,,,0.00,304.0,meteohub,2013-11-20 16:41:00,
2013-11-20 11:46:00,56.7,52.2,30.17,ENE,74,9.0,19.0,85,0.00,,,0.00,264.0,meteohub,2013-11-20 16:46:00,
2013-11-20 11:51:00,56.8,52.3,30.17,NE,44,7.0,19.0,85,0.00,,,0.00,292.0,meteohub,2013-11-20 16:51:00,
2013-11-20 11:56:00,56.8,52.3,30.17,NNE,32,10.0,19.0,85,0.00,,,0.00,264.0,meteohub,2013-11-20 16:56:00,
2013-11-20 12:01:00,56.8,52.7,30.17,NNE,20,6.0,16.0,86,0.00,,,0.00,236.0,meteohub,2013-11-20 17:01:00,
2013-11-20 12:07:00,56.8,52.3,30.17,NE,48,7.0,16.0,85,0.00,,,0.00,225.0,meteohub,2013-11-20 17:07:00,
2013-11-20 12:12:00,56.8,52.7,30.16,NNE,22,10.0,15.0,86,0.00,,,0.00,279.0,meteohub,2013-11-20 17:12:00,
2013-11-20 12:17:00,56.7,52.5,30.16,NE,44,10.0,15.0,86,0.00,,,0.00,258.0,meteohub,2013-11-20 17:17:00,
2013-11-20 12:22:00,56.7,52.5,30.16,NE,46,12.0,18.0,86,0.00,,,0.00,267.0,meteohub,2013-11-20 17:22:00,
2013-11-20 12:27:00,56.7,52.5,30.16,NE,54,6.0,18.0,86,0.00,,,0.00,230.0,meteohub,2013-11-20 17:27:00,
2013-11-20 12:32:00,56.7,52.5,30.16,NE,44,12.0,18.0,86,0.00,,,0.00,246.0,meteohub,2013-11-20 17:32:00,
2013-11-20 12:36:00,56.7,52.2,30.16,NNE,18,3.0,16.0,85,0.00,,,0.00,236.0,meteohub,2013-11-20 17:36:00,
2013-11-20 12:41:00,56.5,52.3,30.15,NE,55,8.0,16.0,86,0.00,,,0.00,218.0,meteohub,2013-11-20 17:41:00,
2013-11-20 12:47:00,56.5,52.3,30.16,NNE,30,7.0,16.0,86,0.00,,,0.00,200.0,meteohub,2013-11-20 17:47:00,
2013-11-20 12:52:00,56.5,52.3,30.15,NNE,24,2.0,20.0,86,0.00,,,0.00,211.0,meteohub,2013-11-20 17:52:00,
2013-11-20 12:57:00,56.7,52.5,30.15,NE,44,14.0,20.0,86,0.00,,,0.00,214.0,meteohub,2013-11-20 17:57:00,
2013-11-20 13:02:00,56.5,52.3,30.15,NNW,327,2.0,20.0,86,0.00,,,0.00,213.0,meteohub,2013-11-20 18:02:00,
2013-11-20 13:07:00,56.5,52.3,30.15,NE,39,7.0,17.0,86,0.00,,,0.00,218.0,meteohub,2013-11-20 18:07:00,
2013-11-20 13:12:00,56.5,52.3,30.15,NE,40,13.0,17.0,86,0.00,,,0.00,211.0,meteohub,2013-11-20 18:12:00,
2013-11-20 13:17:00,56.7,52.5,30.15,North,10,9.0,16.0,86,0.00,,,0.00,209.0,meteohub,2013-11-20 18:17:00,
2013-11-20 13:22:00,56.7,52.5,30.16,North,0,4.0,16.0,86,0.00,,,0.00,171.0,meteohub,2013-11-20 18:22:00,
2013-11-20 13:27:00,56.8,52.7,30.16,ENE,60,11.0,15.0,86,0.00,,,0.00,236.0,meteohub,2013-11-20 18:27:00,
2013-11-20 13:32:00,56.8,52.7,30.16,ENE,63,7.0,15.0,86,0.00,,,0.00,214.0,meteohub,2013-11-20 18:32:00,
2013-11-20 13:37:00,57.0,52.5,30.15,North,355,3.0,13.0,85,0.00,,,0.00,202.0,meteohub,2013-11-20 18:37:00,
2013-11-20 13:42:00,56.8,52.3,30.15,WNW,300,3.0,13.0,85,0.00,,,0.00,216.0,meteohub,2013-11-20 18:42:00,
2013-11-20 13:47:00,56.8,52.3,30.16,NE,38,8.0,15.0,85,0.00,,,0.00,200.0,meteohub,2013-11-20 18:47:00,
2013-11-20 13:52:00,56.7,52.2,30.16,NE,48,8.0,18.0,85,0.00,,,0.00,156.0,meteohub,2013-11-20 18:52:00,
2013-11-20 13:57:00,56.7,52.2,30.16,ENE,62,10.0,18.0,85,0.00,,,0.00,169.0,meteohub,2013-11-20 18:57:00,
2013-11-20 14:02:00,56.5,52.3,30.16,NE,35,10.0,18.0,86,0.00,,,0.00,169.0,meteohub,2013-11-20 19:02:00,
2013-11-20 14:07:00,56.5,52.3,30.15,NE,55,6.0,16.0,86,0.00,,,0.00,174.0,meteohub,2013-11-20 19:07:00,
2013-11-20 14:12:00,56.7,52.5,30.15,ENE,67,13.0,16.0,86,0.00,,,0.00,165.0,meteohub,2013-11-20 19:12:00,
2013-11-20 14:17:00,56.5,52.3,30.15,East,85,8.0,16.0,86,0.00,,,0.00,162.0,meteohub,2013-11-20 19:17:00,
2013-11-20 14:22:00,56.7,52.5,30.15,ENE,59,5.0,15.0,86,0.00,,,0.00,149.0,meteohub,2013-11-20 19:22:00,
2013-11-20 14:27:00,56.7,52.5,30.14,NE,51,9.0,15.0,86,0.00,,,0.00,162.0,meteohub,2013-11-20 19:27:00,
2013-11-20 14:32:00,56.7,52.5,30.15,NE,37,7.0,13.0,86,0.00,,,0.00,141.0,meteohub,2013-11-20 19:32:00,
2013-11-20 14:37:00,56.7,52.5,30.14,NE,55,8.0,13.0,86,0.00,,,0.00,81.0,meteohub,2013-11-20 19:37:00,
2013-11-20 14:42:00,56.7,52.5,30.14,NE,38,4.0,13.0,86,0.00,,,0.00,109.0,meteohub,2013-11-20 19:42:00,
2013-11-20 14:47:00,56.7,52.5,30.14,NE,42,8.0,13.0,86,0.00,,,0.00,88.0,meteohub,2013-11-20 19:47:00,
2013-11-20 14:51:00,56.8,52.7,30.14,NW,323,0.0,12.0,86,0.00,,,0.00,98.0,meteohub,2013-11-20 19:51:00,
2013-11-20 14:57:00,56.7,52.5,30.14,ENE,57,4.0,12.0,86,0.00,,,0.00,76.0,meteohub,2013-11-20 19:57:00,
2013-11-20 15:02:00,56.7,52.5,30.14,NE,44,5.0,14.0,86,0.00,,,0.00,62.0,meteohub,2013-11-20 20:02:00,
2013-11-20 15:07:00,56.7,52.5,30.14,NNW,334,0.0,14.0,86,0.00,,,0.00,62.0,meteohub,2013-11-20 20:07:00,
2013-11-20 15:12:00,56.7,52.5,30.15,NNE,19,1.0,14.0,86,0.00,,,0.00,67.0,meteohub,2013-11-20 20:12:00,
2013-11-20 15:17:00,56.7,52.5,30.15,NE,46,3.0,12.0,86,0.00,,,0.00,63.0,meteohub,2013-11-20 20:17:00,
2013-11-20 15:22:00,56.7,52.5,30.15,NE,49,2.0,12.0,86,0.00,,,0.00,86.0,meteohub,2013-11-20 20:22:00,
2013-11-20 15:27:00,56.8,52.7,30.15,NNE,28,0.0,12.0,86,0.00,,,0.00,83.0,meteohub,2013-11-20 20:27:00,
2013-11-20 15:32:00,56.8,53.1,30.15,NNE,22,3.0,11.0,87,0.00,,,0.00,51.0,meteohub,2013-11-20 20:32:00,
2013-11-20 15:37:00,56.8,53.1,30.15,NNE,26,2.0,12.0,87,0.00,,,0.00,39.0,meteohub,2013-11-20 20:37:00,
2013-11-20 15:42:00,56.7,53.4,30.15,North,0,2.0,14.0,89,0.00,,,0.00,39.0,meteohub,2013-11-20 20:42:00,
2013-11-20 15:47:00,56.8,53.1,30.15,North,0,9.0,14.0,87,0.00,,,0.00,40.0,meteohub,2013-11-20 20:47:00,
2013-11-20 15:52:00,56.7,52.9,30.16,NNE,32,2.0,13.0,87,0.00,,,0.00,40.0,meteohub,2013-11-20 20:52:00,
2013-11-20 15:57:00,56.7,52.9,30.16,NNE,18,10.0,16.0,87,0.00,,,0.00,32.0,meteohub,2013-11-20 20:57:00,
2013-11-20 16:02:00,56.7,52.9,30.16,NE,48,4.0,16.0,87,0.00,,,0.00,30.0,meteohub,2013-11-20 21:02:00,
2013-11-20 16:07:00,56.7,52.9,30.16,NNE,32,10.0,16.0,87,0.00,,,0.00,23.0,meteohub,2013-11-20 21:07:00,
2013-11-20 16:12:00,56.8,53.1,30.16,NNE,19,9.0,16.0,87,0.00,,,0.00,18.0,meteohub,2013-11-20 21:12:00,
2013-11-20 16:17:00,56.8,53.1,30.16,NNE,28,4.0,14.0,87,0.00,,,0.00,21.0,meteohub,2013-11-20 21:17:00,
2013-11-20 16:22:00,56.8,53.2,30.16,North,11,8.0,14.0,88,0.00,,,0.00,19.0,meteohub,2013-11-20 21:22:00,
2013-11-20 16:27:00,57.0,53.4,30.16,NNW,329,0.0,13.0,88,0.00,,,0.00,23.0,meteohub,2013-11-20 21:27:00,
2013-11-20 16:32:00,57.0,53.4,30.16,WNW,294,1.0,13.0,88,0.00,,,0.00,14.0,meteohub,2013-11-20 21:32:00,
2013-11-20 16:37:00,56.8,53.2,30.16,ENE,75,5.0,13.0,88,0.00,,,0.00,12.0,meteohub,2013-11-20 21:37:00,
2013-11-20 16:42:00,56.8,53.6,30.17,ENE,66,7.0,13.0,89,0.00,,,0.00,11.0,meteohub,2013-11-20 21:42:00,
2013-11-20 16:47:00,56.8,54.0,30.17,ENE,64,9.0,16.0,90,0.00,,,0.00,7.0,meteohub,2013-11-20 21:47:00,
2013-11-20 16:52:00,56.8,54.5,30.17,NE,36,5.0,16.0,92,0.00,,,0.00,5.0,meteohub,2013-11-20 21:52:00,
2013-11-20 16:57:00,56.8,54.0,30.17,ENE,63,9.0,15.0,90,0.00,,,0.00,5.0,meteohub,2013-11-20 21:57:00,
2013-11-20 17:02:00,57.0,54.1,30.17,North,350,2.0,12.0,90,0.00,,,0.00,0.0,meteohub,2013-11-20 22:02:00,
2013-11-20 17:07:00,57.0,54.1,30.17,NW,316,6.0,12.0,90,0.00,,,0.00,0.0,meteohub,2013-11-20 22:07:00,
2013-11-20 17:12:00,57.0,53.8,30.17,NNE,26,8.0,12.0,89,0.00,,,0.00,0.0,meteohub,2013-11-20 22:12:00,
2013-11-20 17:17:00,57.2,54.0,30.18,NNE,27,5.0,17.0,89,0.00,,,0.00,0.0,meteohub,2013-11-20 22:17:00,
2013-11-20 17:22:00,57.4,54.1,30.18,NE,54,5.0,17.0,89,0.00,,,0.00,0.0,meteohub,2013-11-20 22:22:00,
2013-11-20 17:27:00,57.4,54.1,30.18,NE,50,9.0,17.0,89,0.00,,,0.00,0.0,meteohub,2013-11-20 22:27:00,
2013-11-20 17:32:00,57.4,54.1,30.18,NNE,22,14.0,17.0,89,0.00,,,0.00,0.0,meteohub,2013-11-20 22:32:00,
2013-11-20 17:37:00,57.4,54.1,30.18,NNE,30,20.0,20.0,89,0.00,,,0.00,0.0,meteohub,2013-11-20 22:37:00,
2013-11-20 17:42:00,57.4,54.1,30.18,NNE,22,9.0,20.0,89,0.00,,,0.00,0.0,meteohub,2013-11-20 22:42:00,
2013-11-20 17:47:00,57.6,54.3,30.18,NNE,21,8.0,20.0,89,0.00,,,0.00,0.0,meteohub,2013-11-20 22:47:00,
2013-11-20 17:52:00,57.6,54.3,30.19,NNE,19,3.0,20.0,89,0.00,,,0.00,0.0,meteohub,2013-11-20 22:52:00,
2013-11-20 17:57:00,57.6,54.3,30.19,NNE,27,8.0,16.0,89,0.00,,,0.00,0.0,meteohub,2013-11-20 22:57:00,
2013-11-20 18:02:00,57.7,54.5,30.19,NE,46,10.0,15.0,89,0.00,,,0.00,0.0,meteohub,2013-11-20 23:02:00,
2013-11-20 18:07:00,57.7,54.5,30.19,North,5,8.0,15.0,89,0.00,,,0.00,0.0,meteohub,2013-11-20 23:07:00,
2013-11-20 18:12:00,57.7,54.5,30.19,North,355,12.0,15.0,89,0.00,,,0.00,0.0,meteohub,2013-11-20 23:12:00,
2013-11-20 18:17:00,57.7,54.9,30.19,NE,36,7.0,13.0,90,0.00,,,0.00,0.0,meteohub,2013-11-20 23:17:00,
2013-11-20 18:22:00,57.6,54.7,30.19,NE,42,5.0,14.0,90,0.00,,,0.00,0.0,meteohub,2013-11-20 23:22:00,
2013-11-20 18:27:00,57.6,54.7,30.19,NE,50,8.0,14.0,90,0.00,,,0.00,0.0,meteohub,2013-11-20 23:27:00,
2013-11-20 18:32:00,57.7,54.9,30.19,NE,41,6.0,14.0,90,0.00,,,0.00,0.0,meteohub,2013-11-20 23:32:00,
2013-11-20 18:37:00,57.7,54.9,30.20,NNE,32,11.0,18.0,90,0.00,,,0.00,0.0,meteohub,2013-11-20 23:37:00,
2013-11-20 18:42:00,57.7,54.9,30.20,NE,43,6.0,18.0,90,0.00,,,0.00,0.0,meteohub,2013-11-20 23:42:00,
2013-11-20 18:46:00,57.7,54.9,30.20,NE,42,14.0,15.0,90,0.00,,,0.00,0.0,meteohub,2013-11-20 23:46:00,
2013-11-20 18:51:00,57.7,54.9,30.20,NE,40,12.0,15.0,90,0.00,,,0.00,0.0,meteohub,2013-11-20 23:51:00,
2013-11-20 18:57:00,57.7,55.2,30.20,ENE,68,7.0,15.0,91,0.00,,,0.00,0.0,meteohub,2013-11-20 23:57:00,
2013-11-20 19:02:00,57.7,55.2,30.21,NE,36,11.0,15.0,91,0.00,,,0.00,0.0,meteohub,2013-11-21 00:02:00,
2013-11-20 19:07:00,57.7,55.2,30.21,NE,52,4.0,15.0,91,0.00,,,0.00,0.0,meteohub,2013-11-21 00:07:00,
2013-11-20 19:12:00,57.7,55.2,30.21,NNE,28,5.0,14.0,91,0.00,,,0.00,0.0,meteohub,2013-11-21 00:12:00,
2013-11-20 19:17:00,57.6,55.2,30.21,NE,41,11.0,14.0,92,0.00,,,0.00,0.0,meteohub,2013-11-21 00:17:00,
2013-11-20 19:22:00,57.6,55.2,30.21,NE,45,5.0,14.0,92,0.00,,,0.00,0.0,meteohub,2013-11-21 00:22:00,
2013-11-20 19:27:00,57.6,55.2,30.20,NNE,13,7.0,14.0,92,0.00,,,0.00,0.0,meteohub,2013-11-21 00:27:00,
2013-11-20 19:32:00,57.7,55.4,30.21,ENE,59,8.0,14.0,92,0.00,,,0.00,0.0,meteohub,2013-11-21 00:32:00,
2013-11-20 19:37:00,57.7,55.4,30.21,NW,313,1.0,12.0,92,0.00,,,0.00,0.0,meteohub,2013-11-21 00:37:00,
2013-11-20 19:42:00,57.9,55.2,30.21,NNE,21,1.0,12.0,91,0.00,,,0.00,0.0,meteohub,2013-11-21 00:42:00,
2013-11-20 19:47:00,57.9,55.2,30.21,North,0,8.0,14.0,91,0.00,,,0.00,0.0,meteohub,2013-11-21 00:47:00,
2013-11-20 19:52:00,57.7,55.2,30.22,NNE,22,6.0,14.0,91,0.00,,,0.00,0.0,meteohub,2013-11-21 00:52:00,
2013-11-20 19:57:00,57.7,55.4,30.22,NE,41,5.0,14.0,92,0.00,,,0.00,0.0,meteohub,2013-11-21 00:57:00,
2013-11-20 20:02:00,57.6,55.2,30.22,NNE,13,1.0,15.0,92,0.00,,,0.00,0.0,meteohub,2013-11-21 01:02:00,
2013-11-20 20:07:00,57.6,55.2,30.22,East,88,8.0,15.0,92,0.00,,,0.00,0.0,meteohub,2013-11-21 01:07:00,
2013-11-20 20:12:00,57.6,55.2,30.22,NE,54,8.0,15.0,92,0.00,,,0.00,0.0,meteohub,2013-11-21 01:12:00,
2013-11-20 20:17:00,57.6,55.0,30.22,ENE,65,11.0,12.0,91,0.00,,,0.00,0.0,meteohub,2013-11-21 01:17:00,
2013-11-20 20:22:00,57.6,55.0,30.22,NE,48,7.0,16.0,91,0.00,,,0.00,0.0,meteohub,2013-11-21 01:22:00,
2013-11-20 20:27:00,57.6,55.0,30.22,NNE,23,7.0,16.0,91,0.00,,,0.00,0.0,meteohub,2013-11-21 01:27:00,
2013-11-20 20:32:00,57.6,55.0,30.22,ENE,57,8.0,16.0,91,0.00,,,0.00,0.0,meteohub,2013-11-21 01:32:00,
2013-11-20 20:37:00,57.7,55.2,30.22,NE,37,3.0,14.0,91,0.00,,,0.00,0.0,meteohub,2013-11-21 01:37:00,
2013-11-20 20:42:00,57.7,55.2,30.22,ENE,60,14.0,14.0,91,0.00,,,0.00,0.0,meteohub,2013-11-21 01:42:00,
2013-11-20 20:47:00,57.7,55.2,30.21,NE,41,9.0,14.0,91,0.00,,,0.00,0.0,meteohub,2013-11-21 01:47:00,
2013-11-20 20:52:00,57.7,55.2,30.21,ENE,64,1.0,14.0,91,0.00,,,0.00,0.0,meteohub,2013-11-21 01:52:00,
2013-11-20 20:56:00,57.7,55.2,30.21,NE,34,5.0,14.0,91,0.00,,,0.00,0.0,meteohub,2013-11-21 01:56:00,
2013-11-20 21:02:00,57.7,55.2,30.21,NE,39,5.0,12.0,91,0.00,,,0.00,0.0,meteohub,2013-11-21 02:02:00,
2013-11-20 21:06:00,57.7,55.2,30.21,ENE,68,5.0,12.0,91,0.00,,,0.00,0.0,meteohub,2013-11-21 02:06:00,
2013-11-20 21:12:00,57.9,55.2,30.21,NE,40,5.0,12.0,91,0.00,,,0.00,0.0,meteohub,2013-11-21 02:12:00,
2013-11-20 21:17:00,58.1,55.4,30.22,NE,48,7.0,12.0,91,0.00,,,0.00,0.0,meteohub,2013-11-21 02:17:00,
2013-11-20 21:22:00,58.3,55.4,30.22,North,355,4.0,10.0,90,0.00,,,0.00,0.0,meteohub,2013-11-21 02:22:00,
2013-11-20 21:27:00,58.5,55.6,30.22,NNE,20,14.0,14.0,90,0.00,,,0.00,0.0,meteohub,2013-11-21 02:27:00,
2013-11-20 21:32:00,58.6,55.8,30.21,ENE,75,5.0,14.0,90,0.00,,,0.00,0.0,meteohub,2013-11-21 02:32:00,
2013-11-20 21:37:00,59.0,55.8,30.21,NNW,348,3.0,14.0,89,0.00,,,0.00,0.0,meteohub,2013-11-21 02:37:00,
2013-11-20 21:42:00,59.0,55.8,30.21,NE,38,8.0,14.0,89,0.00,,,0.00,0.0,meteohub,2013-11-21 02:42:00,
2013-11-20 21:47:00,59.0,55.8,30.21,NE,40,5.0,14.0,89,0.00,,,0.00,0.0,meteohub,2013-11-21 02:47:00,
2013-11-20 21:52:00,59.0,55.8,30.22,NE,52,6.0,14.0,89,0.00,,,0.00,0.0,meteohub,2013-11-21 02:52:00,
2013-11-20 21:57:00,58.8,55.6,30.22,NE,45,6.0,14.0,89,0.00,,,0.00,0.0,meteohub,2013-11-21 02:57:00,
2013-11-20 22:02:00,58.6,55.0,30.22,NNE,26,7.0,14.0,88,0.00,,,0.00,0.0,meteohub,2013-11-21 03:02:00,
2013-11-20 22:07:00,58.6,55.0,30.22,North,0,8.0,14.0,88,0.00,,,0.00,0.0,meteohub,2013-11-21 03:07:00,
2013-11-20 22:12:00,58.6,55.4,30.22,NNE,22,7.0,15.0,89,0.00,,,0.00,0.0,meteohub,2013-11-21 03:12:00,
2013-11-20 22:17:00,58.6,55.4,30.22,NE,42,7.0,15.0,89,0.00,,,0.00,0.0,meteohub,2013-11-21 03:17:00,
2013-11-20 22:22:00,58.6,55.4,30.22,NE,40,5.0,13.0,89,0.00,,,0.00,0.0,meteohub,2013-11-21 03:22:00,
2013-11-20 22:27:00,58.6,55.4,30.22,NNW,340,3.0,13.0,89,0.00,,,0.00,0.0,meteohub,2013-11-21 03:27:00,
2013-11-20 22:32:00,58.5,54.9,30.22,NE,52,6.0,13.0,88,0.00,,,0.00,0.0,meteohub,2013-11-21 03:32:00,
2013-11-20 22:37:00,58.5,54.9,30.22,WNW,295,3.0,13.0,88,0.00,,,0.00,0.0,meteohub,2013-11-21 03:37:00,
2013-11-20 22:42:00,58.5,54.9,30.22,NNE,29,5.0,15.0,88,0.00,,,0.00,0.0,meteohub,2013-11-21 03:42:00,
2013-11-20 22:47:00,58.5,54.9,30.22,NE,44,10.0,15.0,88,0.00,,,0.00,0.0,meteohub,2013-11-21 03:47:00,
2013-11-20 22:52:00,58.5,54.9,30.22,NE,41,8.0,14.0,88,0.00,,,0.00,0.0,meteohub,2013-11-21 03:52:00,
2013-11-20 22:57:00,58.5,54.9,30.22,North,351,7.0,14.0,88,0.00,,,0.00,0.0,meteohub,2013-11-21 03:57:00,
2013-11-20 23:02:00,58.6,55.0,30.21,NNE,18,4.0,15.0,88,0.00,,,0.00,0.0,meteohub,2013-11-21 04:02:00,
2013-11-20 23:07:00,58.6,55.0,30.21,NNE,30,3.0,15.0,88,0.00,,,0.00,0.0,meteohub,2013-11-21 04:07:00,
2013-11-20 23:12:00,58.6,55.0,30.22,NE,38,7.0,15.0,88,0.00,,,0.00,0.0,meteohub,2013-11-21 04:12:00,
2013-11-20 23:17:00,58.6,55.0,30.22,NE,40,11.0,13.0,88,0.00,,,0.00,0.0,meteohub,2013-11-21 04:17:00,
2013-11-20 23:22:00,58.6,55.0,30.21,NE,39,11.0,13.0,88,0.00,,,0.00,0.0,meteohub,2013-11-21 04:22:00,
2013-11-20 23:27:00,58.6,55.0,30.21,NE,48,7.0,15.0,88,0.00,,,0.00,0.0,meteohub,2013-11-21 04:27:00,
2013-11-20 23:32:00,58.6,55.0,30.21,NE,54,5.0,15.0,88,0.00,,,0.00,0.0,meteohub,2013-11-21 04:32:00,
2013-11-20 23:37:00,58.5,54.9,30.22,North,9,1.0,15.0,88,0.00,,,0.00,0.0,meteohub,2013-11-21 04:37:00,
2013-11-20 23:42:00,58.5,54.9,30.21,NNE,19,1.0,13.0,88,0.00,,,0.00,0.0,meteohub,2013-11-21 04:42:00,
2013-11-20 23:47:00,58.3,55.0,30.21,NNW,342,7.0,13.0,89,0.00,,,0.00,0.0,meteohub,2013-11-21 04:47:00,
2013-11-20 23:52:00,58.3,55.0,30.21,North,5,5.0,12.0,89,0.00,,,0.00,0.0,meteohub,2013-11-21 04:52:00,
2013-11-20 23:57:00,58.1,54.9,30.21,NE,46,2.0,12.0,89,0.00,,,0.00,0.0,meteohub,2013-11-21 04:57:00,